Time;durP1;ratioP1;P1;durP2;ratioP2;P2;SDS_P1;SDS_P2;PMS_P1;PMS_P2;Temp;Humidity;BMP_temperature;BMP_pressure;BME280_temperature;BME280_humidity;BME280_pressure;Samples;Min_cycle;Max_cycle;Signal;HPM_P1;HPM_P2
2023/06/17 00:02:07;;;;;;;7.75;7.00;;;;;;;14.76;100.00;101678.03;5017905;28;20040;-47
2023/06/17 00:04:32;;;;;;;7.00;6.38;;;;;;;14.42;100.00;101621.84;5035083;28;20061;-47
2023/06/17 00:06:58;;;;;;;8.57;6.65;;;;;;;14.72;100.00;101680.81;5035571;28;20041;-48
2023/06/17 00:09:25;;;;;;;7.07;6.18;;;;;;;14.67;100.00;101683.66;5034452;28;20084;-48
2023/06/17 00:11:51;;;;;;;11.77;6.28;;;;;;;14.53;100.00;101660.31;5035414;28;20079;-50
2023/06/17 00:14:20;;;;;;;9.43;7.18;;;;;;;14.47;100.00;101654.34;5035701;28;20037;-51
2023/06/17 00:16:46;;;;;;;7.63;6.93;;;;;;;14.17;100.00;101615.66;5035495;28;20040;-48
2023/06/17 00:19:15;;;;;;;8.98;7.60;;;;;;;14.32;100.00;101647.81;5035144;28;20415;-47
2023/06/17 00:21:49;;;;;;;10.65;7.30;;;;;;;14.06;100.00;101600.16;5017946;28;20037;-46
2023/06/17 00:24:15;;;;;;;8.10;7.30;;;;;;;14.28;100.00;101658.50;5018738;28;20084;-48
2023/06/17 00:26:41;;;;;;;9.98;7.72;;;;;;;14.34;100.00;101661.00;5035347;28;20029;-47
2023/06/17 00:29:07;;;;;;;9.52;7.00;;;;;;;14.31;100.00;101658.41;5035226;28;20555;-48
2023/06/17 00:31:32;;;;;;;9.82;7.55;;;;;;;14.21;100.00;101649.06;5035612;28;20061;-52
2023/06/17 00:33:58;;;;;;;10.35;8.27;;;;;;;14.26;100.00;101671.81;5035073;28;20102;-47
2023/06/17 00:36:23;;;;;;;9.57;7.70;;;;;;;14.20;100.00;101649.97;5035388;28;20033;-48
2023/06/17 00:38:48;;;;;;;8.02;7.22;;;;;;;14.08;100.00;101630.94;5034875;28;20055;-48
2023/06/17 00:41:14;;;;;;;9.32;8.43;;;;;;;13.84;100.00;101578.84;5017494;28;20037;-47
2023/06/17 00:43:39;;;;;;;9.35;8.40;;;;;;;13.81;100.00;101572.78;5035262;28;20092;-46
2023/06/17 00:46:06;;;;;;;8.43;7.30;;;;;;;13.76;100.00;101569.44;5017345;28;20033;-46
2023/06/17 00:48:31;;;;;;;10.77;8.43;;;;;;;14.10;100.00;101623.81;5034770;28;20037;-49
2023/06/17 00:51:01;;;;;;;9.05;7.95;;;;;;;13.74;100.00;101582.75;5033469;28;20129;-49
2023/06/17 00:53:28;;;;;;;10.00;9.00;;;;;;;13.63;100.00;101568.13;5034836;28;20128;-50
2023/06/17 00:55:53;;;;;;;9.90;8.23;;;;;;;14.02;100.00;101640.88;5034872;28;20029;-49
2023/06/17 00:58:19;;;;;;;8.57;7.22;;;;;;;13.93;100.00;101633.25;5033346;28;20034;-50
2023/06/17 01:00:44;;;;;;;9.77;8.60;;;;;;;13.42;100.00;101549.41;5017117;28;20044;-47
2023/06/17 01:03:10;;;;;;;8.95;8.05;;;;;;;13.99;100.00;101644.50;5016873;28;20037;-46
2023/06/17 01:05:37;;;;;;;9.45;8.57;;;;;;;13.86;100.00;101621.16;5016433;28;20037;-47
2023/06/17 01:08:28;;;;;;;9.70;8.63;;;;;;;13.65;100.00;101579.53;5017236;28;20049;-48
2023/06/17 01:11:13;;;;;;;9.65;8.82;;;;;;;13.76;100.00;101602.06;5016549;28;20061;-49
2023/06/17 01:13:41;;;;;;;8.68;7.88;;;;;;;13.96;100.00;101652.53;5016382;28;20045;-49
2023/06/17 01:16:07;;;;;;;9.40;8.50;;;;;;;13.82;100.00;101627.44;5016353;28;20436;-50
2023/06/17 01:18:33;;;;;;;9.68;8.68;;;;;;;13.89;100.00;101651.00;5016567;28;20029;-47
2023/06/17 01:20:58;;;;;;;10.75;8.63;;;;;;;13.86;100.00;101642.31;5034270;28;20082;-48
2023/06/17 01:23:31;;;;;;;11.60;9.63;;;;;;;13.41;100.00;101565.31;5032974;28;20033;-52
2023/06/17 01:25:58;;;;;;;9.95;9.05;;;;;;;13.81;100.00;101634.53;5016651;28;20038;-50
2023/06/17 01:28:24;;;;;;;10.38;9.48;;;;;;;13.35;100.00;101563.75;5016331;28;20131;-50
2023/06/17 01:30:54;;;;;;;11.18;8.77;;;;;;;13.27;100.00;101541.13;5016630;28;20431;-49
2023/06/17 01:33:20;;;;;;;10.80;9.70;;;;;;;13.77;100.00;101638.19;5016951;28;20122;-49
2023/06/17 01:35:55;;;;;;;10.63;9.48;;;;;;;13.76;100.00;101635.59;5034135;28;20033;-50
2023/06/17 01:38:42;;;;;;;11.30;10.30;;;;;;;13.68;100.00;101629.69;5032728;28;20034;-49
2023/06/17 01:41:12;;;;;;;13.57;9.90;;;;;;;13.64;100.00;101623.63;5032649;28;20120;-52
2023/06/17 01:43:40;;;;;;;10.77;9.55;;;;;;;13.69;100.00;101632.28;5016180;28;20062;-47
2023/06/17 01:46:05;;;;;;;10.27;9.20;;;;;;;13.33;100.00;101562.06;5016329;28;20057;-48
2023/06/17 01:48:31;;;;;;;11.02;9.90;;;;;;;13.69;100.00;101650.78;5032565;28;20076;-49
2023/06/17 01:50:56;;;;;;;11.80;9.90;;;;;;;13.68;100.00;101629.69;5032303;28;20037;-52
2023/06/17 01:53:24;;;;;;;11.07;10.07;;;;;;;13.73;100.00;101638.34;5033536;28;20056;-51
2023/06/17 01:55:51;;;;;;;11.65;10.55;;;;;;;13.67;100.00;101642.03;5033652;28;20555;-48
2023/06/17 01:58:16;;;;;;;11.60;10.40;;;;;;;13.67;100.00;101635.88;5032302;28;20411;-50
2023/06/17 02:00:42;;;;;;;12.27;10.90;;;;;;;13.67;100.00;101633.25;5015929;28;20124;-48
2023/06/17 02:03:07;;;;;;;12.88;11.52;;;;;;;13.52;100.00;101611.66;5033453;28;20108;-50
2023/06/17 02:05:32;;;;;;;12.00;11.00;;;;;;;13.63;100.00;101634.28;5033404;28;20113;-51
2023/06/17 02:07:59;;;;;;;12.35;11.13;;;;;;;13.46;100.00;101608.34;5033326;28;20049;-48
2023/06/17 02:10:25;;;;;;;12.98;11.77;;;;;;;13.44;100.00;101610.19;5015979;28;20038;-48
2023/06/17 02:12:50;;;;;;;13.38;12.07;;;;;;;13.51;100.00;101622.31;5033531;28;20067;-47
2023/06/17 02:15:16;;;;;;;13.93;12.65;;;;;;;13.46;100.00;101613.63;5033393;28;20041;-47
2023/06/17 02:17:42;;;;;;;15.05;13.65;;;;;;;13.39;100.00;101613.00;5033091;28;20087;-47
2023/06/17 02:20:09;;;;;;;16.20;14.48;;;;;;;13.02;100.00;101553.34;5033196;28;20033;-50
2023/06/17 02:22:35;;;;;;;15.30;13.65;;;;;;;12.95;100.00;101544.75;5033474;28;20040;-48
2023/06/17 02:25:02;;;;;;;15.25;13.82;;;;;;;12.92;100.00;101542.19;5033015;28;20042;-51
2023/06/17 02:27:28;;;;;;;16.45;14.85;;;;;;;13.14;100.00;101588.22;5032941;28;20039;-47
2023/06/17 02:29:53;;;;;;;17.27;15.60;;;;;;;13.13;100.00;101583.84;5032834;28;20140;-50
2023/06/17 02:32:18;;;;;;;16.85;15.02;;;;;;;13.20;100.00;101600.38;5015222;28;20041;-47
2023/06/17 02:34:47;;;;;;;19.02;16.02;;;;;;;13.06;100.00;101576.97;5032510;28;20030;-47
2023/06/17 02:37:13;;;;;;;15.10;13.70;;;;;;;12.98;100.00;101571.06;5032627;28;20449;-49
2023/06/17 02:39:39;;;;;;;16.38;14.82;;;;;;;12.70;100.00;101528.75;5015393;28;20034;-47
2023/06/17 02:42:05;;;;;;;16.83;15.13;;;;;;;13.05;100.00;101595.53;5033052;28;20034;-47
2023/06/17 02:44:30;;;;;;;16.00;14.57;;;;;;;12.65;100.00;101527.16;5032390;28;20061;-48
2023/06/17 02:46:55;;;;;;;16.58;15.07;;;;;;;13.01;100.00;101596.53;5032771;28;20072;-47
2023/06/17 02:49:21;;;;;;;17.17;15.60;;;;;;;12.59;100.00;101512.38;5015273;28;20167;-48
2023/06/17 02:51:47;;;;;;;16.33;14.75;;;;;;;12.74;100.00;101548.91;5032461;28;20445;-49
2023/06/17 02:54:13;;;;;;;17.45;15.80;;;;;;;12.91;100.00;101585.38;5032519;28;20042;-49
2023/06/17 02:56:38;;;;;;;18.27;16.48;;;;;;;12.86;100.00;101588.16;5032680;28;20113;-50
2023/06/17 02:59:03;;;;;;;20.25;18.10;;;;;;;12.89;100.00;101581.91;5032578;28;20033;-48
2023/06/17 03:01:29;;;;;;;18.98;17.00;;;;;;;12.84;100.00;101568.00;5032312;28;20034;-51
2023/06/17 03:03:54;;;;;;;19.73;17.63;;;;;;;12.80;100.00;101571.63;5032546;28;20045;-49
2023/06/17 03:06:21;;;;;;;20.83;18.83;;;;;;;12.34;100.00;101506.97;5032252;28;20041;-50
2023/06/17 03:08:47;;;;;;;19.90;18.13;;;;;;;12.41;100.00;101518.19;5032466;28;20068;-50
2023/06/17 03:11:12;;;;;;;21.08;18.90;;;;;;;12.41;100.00;101526.97;5032147;28;20113;-49
2023/06/17 03:13:38;;;;;;;22.08;19.85;;;;;;;12.78;100.00;101584.88;5032061;28;20194;-49
2023/06/17 03:16:05;;;;;;;23.17;20.88;;;;;;;12.70;100.00;101576.31;5032471;28;20112;-49
2023/06/17 03:18:31;;;;;;;23.20;20.83;;;;;;;12.70;100.00;101575.44;5032268;28;20112;-47
2023/06/17 03:20:56;;;;;;;23.80;21.48;;;;;;;12.73;100.00;101575.34;5014370;28;20164;-47
2023/06/17 03:23:22;;;;;;;23.80;21.40;;;;;;;12.76;100.00;101585.81;5032473;28;20091;-48
2023/06/17 03:25:48;;;;;;;23.98;21.55;;;;;;;12.77;100.00;101577.88;5032373;28;20477;-50
2023/06/17 03:28:13;;;;;;;27.25;24.50;;;;;;;12.70;100.00;101554.31;5032261;28;20029;-48
2023/06/17 03:30:40;;;;;;;27.63;24.98;;;;;;;12.36;100.00;101499.84;5031963;28;20381;-49
2023/06/17 03:33:06;;;;;;;26.05;23.52;;;;;;;12.83;100.00;101576.81;5032179;28;20072;-50
2023/06/17 03:35:32;;;;;;;28.05;25.38;;;;;;;12.43;100.00;101497.91;5016586;28;20442;-51
2023/06/17 03:37:57;;;;;;;29.15;26.30;;;;;;;12.41;100.00;101492.66;5018368;28;20435;-49
2023/06/17 03:40:23;;;;;;;28.35;25.65;;;;;;;12.91;100.00;101575.66;5036210;28;20033;-47
2023/06/17 03:42:48;;;;;;;30.98;27.88;;;;;;;12.93;100.00;101565.03;5036227;28;20026;-47
2023/06/17 03:45:13;;;;;;;29.50;26.60;;;;;;;12.93;100.00;101581.75;5036001;28;20477;-48
2023/06/17 03:47:39;;;;;;;32.45;29.08;;;;;;;12.84;100.00;101547.69;5035765;28;20580;-46
2023/06/17 03:50:06;;;;;;;32.72;29.70;;;;;;;13.03;100.00;101578.84;5035614;28;20064;-47
2023/06/17 03:52:31;;;;;;;33.25;30.02;;;;;;;12.80;100.00;101524.94;5036165;28;20045;-47
2023/06/17 03:54:57;;;;;;;33.67;30.48;;;;;;;13.05;100.00;101571.75;5018227;28;20040;-47
2023/06/17 03:57:22;;;;;;;32.95;29.75;;;;;;;12.66;100.00;101489.28;5035923;28;20041;-47
2023/06/17 03:59:48;;;;;;;32.13;28.70;;;;;;;12.91;100.00;101529.88;5035879;28;20381;-49
2023/06/17 04:02:13;;;;;;;31.42;28.42;;;;;;;13.07;100.00;101562.00;5033025;28;20481;-49
2023/06/17 04:04:39;;;;;;;29.73;26.70;;;;;;;12.68;100.00;101496.25;5020421;28;20503;-47
2023/06/17 04:07:04;;;;;;;32.35;29.08;;;;;;;13.17;100.00;101574.91;5035215;28;20507;-49
2023/06/17 04:09:30;;;;;;;32.55;29.55;;;;;;;13.22;100.00;101564.19;5035645;28;20037;-49
2023/06/17 04:11:57;;;;;;;31.90;28.60;;;;;;;13.24;100.00;101567.66;5035445;28;20493;-50
2023/06/17 04:14:22;;;;;;;32.78;29.60;;;;;;;12.72;100.00;101474.13;5035305;28;20033;-51
2023/06/17 04:16:49;;;;;;;32.28;29.05;;;;;;;12.88;100.00;101496.50;5034951;28;20386;-48
2023/06/17 04:19:17;;;;;;;31.30;28.23;;;;;;;13.20;100.00;101547.50;5035248;28;20041;-49
2023/06/17 04:21:43;;;;;;;33.45;30.35;;;;;;;12.82;100.00;101487.88;5033969;28;20103;-47
2023/06/17 04:24:08;;;;;;;33.33;29.83;;;;;;;13.38;100.00;101568.06;5033164;28;20045;-47
2023/06/17 04:26:33;;;;;;;32.13;29.00;;;;;;;13.44;100.00;101571.38;5035407;28;20065;-48
2023/06/17 04:29:01;;;;;;;31.45;28.33;;;;;;;13.50;100.00;101576.47;5040200;28;20128;-50
2023/06/17 04:31:27;;;;;;;33.15;29.83;;;;;;;13.56;100.00;101586.00;5033067;28;20045;-47
2023/06/17 04:33:55;;;;;;;32.80;29.63;;;;;;;13.19;100.00;101506.13;5043070;28;20045;-48
2023/06/17 04:36:23;;;;;;;31.95;28.98;;;;;;;13.49;100.00;101548.28;5032719;28;20047;-50
2023/06/17 04:38:49;;;;;;;30.52;27.63;;;;;;;13.31;100.00;101517.16;5034193;28;20041;-49
2023/06/17 04:41:15;;;;;;;31.20;28.27;;;;;;;13.59;100.00;101551.50;5035003;28;20025;-49
2023/06/17 04:43:48;;;;;;;33.70;30.50;;;;;;;13.42;100.00;101507.09;5034800;28;20417;-49
2023/06/17 04:46:16;;;;;;;32.63;29.48;;;;;;;13.88;100.00;101569.03;5033407;28;20034;-49
2023/06/17 04:48:43;;;;;;;30.33;27.50;;;;;;;13.54;100.00;101500.53;5034791;28;20559;-47
2023/06/17 04:51:09;;;;;;;31.60;28.60;;;;;;;13.59;100.00;101490.66;5034897;28;20061;-47
2023/06/17 04:53:38;;;;;;;29.42;26.65;;;;;;;14.14;100.00;101582.22;5050242;28;20037;-51
2023/06/17 04:56:04;;;;;;;31.45;28.33;;;;;;;13.85;100.00;101508.25;5017462;28;20033;-50
2023/06/17 04:58:29;;;;;;;31.85;28.58;;;;;;;13.96;100.00;101509.63;5034710;28;20042;-47
2023/06/17 05:00:55;;;;;;;29.75;26.73;;;;;;;14.38;100.00;101559.31;5033994;28;20046;-49
2023/06/17 05:03:20;;;;;;;29.35;26.55;;;;;;;14.21;100.00;101521.97;5033737;28;20064;-47
2023/06/17 05:05:45;;;;;;;27.88;25.30;;;;;;;14.56;100.00;101566.59;5016954;28;20488;-49
2023/06/17 05:08:11;;;;;;;26.95;24.52;;;;;;;14.41;100.00;101522.13;5034508;28;20036;-48
2023/06/17 05:10:36;;;;;;;26.88;24.38;;;;;;;14.72;100.00;101550.97;5034392;28;20033;-53
2023/06/17 05:13:01;;;;;;;27.58;24.88;;;;;;;14.80;100.00;101565.66;5034411;28;20138;-47
2023/06/17 05:15:27;;;;;;;27.65;25.05;;;;;;;14.43;100.00;101494.66;5034406;28;20556;-51
2023/06/17 05:17:52;;;;;;;29.08;26.38;;;;;;;14.94;100.00;101559.84;5033143;28;20044;-52
2023/06/17 05:20:17;;;;;;;26.73;24.17;;;;;;;14.71;100.00;101504.22;5034308;28;20099;-47
2023/06/17 05:22:43;;;;;;;28.48;25.85;;;;;;;14.82;100.00;101494.91;5034238;28;20057;-51
2023/06/17 05:25:08;;;;;;;27.15;24.73;;;;;;;15.27;100.00;101553.19;5034227;28;20404;-48
2023/06/17 05:27:34;;;;;;;25.85;23.63;;;;;;;15.13;100.00;101508.66;5033925;28;20500;-48
2023/06/17 05:30:00;;;;;;;24.02;21.88;;;;;;;15.65;100.00;101563.13;5032054;28;20045;-47
2023/06/17 05:32:25;;;;;;;22.88;20.77;;;;;;;15.83;100.00;101563.28;5033788;28;20041;-50
2023/06/17 05:34:51;;;;;;;23.15;20.98;;;;;;;15.94;100.00;101558.34;5015922;28;20042;-49
2023/06/17 05:37:16;;;;;;;21.45;19.50;;;;;;;16.17;100.00;101572.38;5034259;28;20041;-49
2023/06/17 05:39:41;;;;;;;18.85;17.10;;;;;;;16.33;100.00;101567.25;5033477;28;20049;-49
2023/06/17 05:42:07;;;;;;;19.80;18.10;;;;;;;16.47;100.00;101553.34;5033800;28;20132;-52
2023/06/17 05:44:32;;;;;;;17.30;15.80;;;;;;;16.31;100.00;101498.22;5033656;28;20090;-48
2023/06/17 05:46:57;;;;;;;16.33;14.65;;;;;;;16.77;100.00;101554.63;5033787;28;20408;-49
2023/06/17 05:49:23;;;;;;;16.15;14.45;;;;;;;16.66;100.00;101522.38;5033889;28;20473;-48
2023/06/17 05:51:48;;;;;;;13.65;12.23;;;;;;;16.65;100.00;101520.63;5033754;28;20465;-48
2023/06/17 05:54:13;;;;;;;14.80;13.45;;;;;;;17.07;100.00;101582.44;5033458;28;20518;-47
2023/06/17 05:56:39;;;;;;;12.10;10.80;;;;;;;16.99;100.00;101547.34;5033650;28;20059;-48
2023/06/17 05:59:05;;;;;;;9.48;8.52;;;;;;;17.20;100.00;101594.22;5033091;28;20033;-48
2023/06/17 06:01:31;;;;;;;8.95;8.15;;;;;;;16.95;100.00;101545.78;5033218;28;20171;-49
2023/06/17 06:03:56;;;;;;;9.05;8.15;;;;;;;17.13;100.00;101546.72;5033871;28;20045;-49
2023/06/17 06:06:21;;;;;;;10.05;8.88;;;;;;;17.59;100.00;101602.09;5033417;28;20049;-49
2023/06/17 06:08:46;;;;;;;10.60;8.60;;;;;;;17.68;100.00;101606.97;5033358;28;20041;-49
2023/06/17 06:11:12;;;;;;;10.10;9.15;;;;;;;17.61;100.00;101557.63;5033510;28;20039;-49
2023/06/17 06:13:37;;;;;;;11.15;9.30;;;;;;;17.97;100.00;101587.72;5015455;28;20037;-47
2023/06/17 06:16:03;;;;;;;9.85;8.95;;;;;;;18.12;100.00;101598.53;5033239;28;20037;-48
2023/06/17 06:18:29;;;;;;;10.30;9.07;;;;;;;18.30;100.00;101605.59;5033346;28;20069;-48
2023/06/17 06:20:55;;;;;;;11.85;8.48;;;;;;;18.37;100.00;101621.16;5015656;28;20053;-49
2023/06/17 06:23:20;;;;;;;10.27;9.18;;;;;;;17.98;100.00;101544.16;5033160;28;20033;-49
2023/06/17 06:25:46;;;;;;;11.05;9.80;;;;;;;18.46;100.00;101591.38;5032070;28;20393;-47
2023/06/17 06:28:11;;;;;;;10.02;9.00;;;;;;;18.58;100.00;101599.69;5033003;28;20033;-48
2023/06/17 06:30:36;;;;;;;9.73;8.85;;;;;;;18.74;100.00;101597.94;5015219;28;20065;-52
2023/06/17 06:33:02;;;;;;;9.30;8.50;;;;;;;18.72;100.00;101578.47;5015356;28;20382;-47
2023/06/17 06:35:27;;;;;;;9.07;8.18;;;;;;;18.96;100.00;101587.78;5032891;28;20037;-49
2023/06/17 06:37:52;;;;;;;8.77;7.97;;;;;;;19.03;100.00;101607.88;5032793;28;20412;-50
2023/06/17 06:40:18;;;;;;;8.93;7.38;;;;;;;19.13;100.00;101613.53;5032931;28;20465;-50
2023/06/17 06:42:43;;;;;;;8.10;7.45;;;;;;;19.21;100.00;101605.94;5032938;28;20389;-49
2023/06/17 06:45:09;;;;;;;8.55;7.75;;;;;;;19.30;100.00;101605.44;5032435;28;20033;-52
2023/06/17 06:47:34;;;;;;;9.30;8.40;;;;;;;19.38;100.00;101601.38;5032907;28;20037;-48
2023/06/17 06:50:00;;;;;;;9.20;8.38;;;;;;;19.48;100.00;101597.28;5032767;28;20032;-53
2023/06/17 06:52:25;;;;;;;7.78;7.07;;;;;;;19.62;100.00;101609.84;5032431;28;20044;-50
2023/06/17 06:54:51;;;;;;;8.70;7.00;;;;;;;19.75;100.00;101604.66;5032469;28;20034;-50
2023/06/17 06:57:16;;;;;;;6.95;6.35;;;;;;;19.46;100.00;101551.13;5032472;28;20033;-52
2023/06/17 06:59:41;;;;;;;7.75;6.95;;;;;;;19.75;100.00;101596.63;5014822;28;20045;-49
2023/06/17 07:02:07;;;;;;;7.07;6.43;;;;;;;19.94;100.00;101600.81;5032479;28;20061;-50
2023/06/17 07:04:32;;;;;;;7.80;6.70;;;;;;;19.66;100.00;101539.28;5032535;28;20479;-49
2023/06/17 07:06:57;;;;;;;8.27;7.35;;;;;;;20.11;100.00;101606.00;5032778;28;20092;-52
2023/06/17 07:09:23;;;;;;;9.32;8.43;;;;;;;20.20;100.00;101604.59;5031708;28;20397;-49
2023/06/17 07:11:48;;;;;;;8.52;7.80;;;;;;;20.41;100.00;101605.13;5014639;28;20373;-52
2023/06/17 07:14:13;;;;;;;8.75;7.95;;;;;;;20.31;100.00;101577.25;5032014;28;20412;-49
2023/06/17 07:16:39;;;;;;;8.25;7.40;;;;;;;20.40;100.00;101576.69;5014549;28;20066;-51
2023/06/17 07:19:04;;;;;;;8.18;7.40;;;;;;;20.74;100.00;101611.09;5032301;28;20193;-48
2023/06/17 07:21:29;;;;;;;8.50;7.65;;;;;;;20.71;100.00;101603.25;5014655;28;20080;-48
2023/06/17 07:23:55;;;;;;;8.00;7.18;;;;;;;20.78;100.00;101612.63;5014305;28;20034;-46
2023/06/17 07:26:20;;;;;;;9.25;8.18;;;;;;;20.62;100.00;101577.06;5031750;28;20029;-50
2023/06/17 07:28:45;;;;;;;7.80;6.97;;;;;;;20.88;100.00;101597.69;5032044;28;20037;-48
2023/06/17 07:31:12;;;;;;;7.45;6.75;;;;;;;20.81;100.00;101566.09;5031760;28;20501;-49
2023/06/17 07:33:39;;;;;;;7.80;6.32;;;;;;;21.36;100.00;101608.94;5014420;28;20033;-51
2023/06/17 07:36:04;;;;;;;7.10;6.47;;;;;;;21.28;100.00;101548.69;5032109;28;20042;-47
2023/06/17 07:38:32;;;;;;;8.68;7.97;;;;;;;21.77;100.00;101612.44;5014388;28;20120;-50
2023/06/17 07:40:58;;;;;;;8.75;7.85;;;;;;;21.71;100.00;101613.69;5031932;28;20469;-49
2023/06/17 07:43:23;;;;;;;7.93;6.95;;;;;;;21.90;100.00;101618.72;5031869;28;20072;-51
2023/06/17 07:45:48;;;;;;;6.75;5.57;;;;;;;21.84;100.00;101585.09;5031628;28;20029;-46
2023/06/17 07:48:14;;;;;;;7.20;5.30;;;;;;;22.60;100.00;101628.13;5031862;28;20025;-50
2023/06/17 07:50:39;;;;;;;5.60;5.20;;;;;;;22.80;100.00;101635.69;5032021;28;20080;-52
2023/06/17 07:53:04;;;;;;;5.30;4.80;;;;;;;23.47;100.00;101634.38;5031947;28;20049;-47
2023/06/17 07:55:30;;;;;;;5.95;5.38;;;;;;;23.65;100.00;101581.09;5032044;28;20034;-51
2023/06/17 07:57:55;;;;;;;5.47;4.57;;;;;;;23.63;100.00;101588.41;5031988;28;20136;-50
2023/06/17 08:00:21;;;;;;;5.28;4.70;;;;;;;24.47;100.00;101644.72;5014440;28;20385;-52
2023/06/17 08:02:47;;;;;;;5.07;4.43;;;;;;;24.71;100.00;101642.81;5030517;28;20370;-49
2023/06/17 08:05:12;;;;;;;6.65;4.57;;;;;;;24.72;100.00;101569.16;5013973;28;20040;-49
2023/06/17 08:07:37;;;;;;;5.20;4.75;;;;;;;25.15;100.00;101588.09;5031957;28;20037;-50
2023/06/17 08:10:04;;;;;;;5.75;5.15;;;;;;;25.90;100.00;101647.47;5031730;28;20030;-50
2023/06/17 08:12:29;;;;;;;4.30;4.00;;;;;;;26.15;100.00;101601.28;5031619;28;20037;-50
2023/06/17 08:14:54;;;;;;;5.40;3.85;;;;;;;26.79;100.00;101647.91;5031771;28;20385;-48
2023/06/17 08:17:20;;;;;;;5.07;4.00;;;;;;;26.54;100.00;101657.22;5031680;28;20034;-48
2023/06/17 08:19:46;;;;;;;4.88;4.47;;;;;;;26.47;100.00;101658.78;5031848;28;20038;-50
2023/06/17 08:22:11;;;;;;;4.60;4.22;;;;;;;26.61;100.00;101636.81;5034820;28;20464;-49
2023/06/17 08:24:36;;;;;;;4.18;3.67;;;;;;;27.47;100.00;101654.41;5035310;28;20508;-48
2023/06/17 08:27:02;;;;;;;4.97;4.30;;;;;;;27.02;100.00;101603.50;5035246;28;20417;-52
2023/06/17 08:29:27;;;;;;;9.23;4.40;;;;;;;27.06;100.00;101655.38;5016988;28;20050;-50
2023/06/17 08:31:53;;;;;;;4.72;3.83;;;;;;;26.62;100.00;101648.50;5034968;28;20382;-52
2023/06/17 08:34:21;;;;;;;4.95;4.05;;;;;;;26.86;100.00;101626.56;5035333;28;20034;-51
2023/06/17 08:36:49;;;;;;;5.72;3.88;;;;;;;26.69;100.00;101593.78;5034945;28;20469;-49
2023/06/17 08:39:15;;;;;;;5.35;4.18;;;;;;;27.14;100.00;101631.25;5035058;28;20476;-50
2023/06/17 08:41:41;;;;;;;3.92;3.60;;;;;;;27.39;100.00;101642.44;5034813;28;20061;-53
2023/06/17 08:44:09;;;;;;;4.03;3.67;;;;;;;27.17;100.00;101599.41;5016828;28;20033;-51
2023/06/17 08:46:35;;;;;;;3.83;3.53;;;;;;;26.61;100.00;101550.41;5034703;28;20036;-50
2023/06/17 08:49:02;;;;;;;4.85;4.05;;;;;;;26.83;100.00;101646.63;5034305;28;20052;-51
2023/06/17 08:51:28;;;;;;;6.95;4.95;;;;;;;26.61;100.00;101647.63;5034870;28;20025;-49
2023/06/17 08:53:54;;;;;;;3.95;3.53;;;;;;;26.24;100.00;101543.81;5016505;28;20087;-51
2023/06/17 08:56:20;;;;;;;4.75;4.38;;;;;;;26.93;100.00;101642.13;5034674;28;20056;-52
2023/06/17 08:58:47;;;;;;;6.80;3.65;;;;;;;27.21;100.00;101646.78;5035029;28;20041;-49
2023/06/17 09:01:13;;;;;;;4.00;3.60;;;;;;;26.81;99.98;101584.66;5034348;28;20396;-51
2023/06/17 09:03:41;;;;;;;3.85;3.53;;;;;;;27.01;98.53;101592.81;5016331;28;20032;-51
2023/06/17 09:06:17;;;;;;;4.28;3.30;;;;;;;27.16;100.00;101573.38;5034612;28;20091;-52
2023/06/17 09:08:43;;;;;;;4.13;3.70;;;;;;;27.94;95.98;101634.69;5016796;28;20500;-51
2023/06/17 09:11:09;;;;;;;7.03;3.75;;;;;;;27.37;96.80;101595.75;5034701;28;20047;-51
2023/06/17 09:13:35;;;;;;;5.53;3.35;;;;;;;27.82;95.07;101630.41;5034322;28;20030;-50
2023/06/17 09:16:01;;;;;;;6.07;3.90;;;;;;;27.48;93.58;101596.66;5034484;28;20030;-48
2023/06/17 09:18:26;;;;;;;4.05;3.70;;;;;;;27.53;91.71;101613.31;5034413;28;20112;-49
2023/06/17 09:20:55;;;;;;;5.22;3.97;;;;;;;27.70;98.45;101627.00;5033971;28;20073;-50
2023/06/17 09:23:21;;;;;;;4.75;3.53;;;;;;;27.60;100.00;101638.81;5034655;28;20034;-47
2023/06/17 09:25:47;;;;;;;4.95;3.65;;;;;;;27.69;95.95;101633.41;5033381;28;20051;-49
2023/06/17 09:28:12;;;;;;;6.20;3.97;;;;;;;28.02;96.86;101632.13;5034460;28;20452;-49
2023/06/17 09:30:43;;;;;;;3.63;3.33;;;;;;;28.19;91.93;101639.59;5033899;28;20585;-53
2023/06/17 09:33:28;;;;;;;3.95;3.63;;;;;;;28.85;93.15;101639.59;5033275;28;20112;-52
2023/06/17 09:36:00;;;;;;;3.70;3.33;;;;;;;28.90;87.95;101640.00;5015506;28;20100;-51
2023/06/17 09:38:27;;;;;;;5.22;3.45;;;;;;;29.14;86.26;101634.03;5033996;28;20041;-48
2023/06/17 09:40:53;;;;;;;3.60;3.22;;;;;;;28.86;85.36;101581.69;5034085;28;20473;-48
2023/06/17 09:43:18;;;;;;;4.57;3.58;;;;;;;28.96;80.72;101637.53;5032672;28;20068;-50
2023/06/17 09:45:44;;;;;;;5.18;3.85;;;;;;;29.24;86.48;101607.78;5033977;28;20297;-49
2023/06/17 09:48:10;;;;;;;4.45;3.30;;;;;;;29.28;85.17;101573.91;5016256;28;20076;-53
2023/06/17 09:50:37;;;;;;;5.85;3.60;;;;;;;29.47;93.25;101620.75;5016093;28;20037;-49
2023/06/17 09:53:05;;;;;;;4.95;3.80;;;;;;;29.75;86.17;101613.41;5032591;28;20037;-50
2023/06/17 09:55:31;;;;;;;5.10;3.53;;;;;;;29.18;80.62;101563.13;5033768;28;20393;-50
2023/06/17 09:57:58;;;;;;;6.28;3.70;;;;;;;30.03;80.01;101568.91;5033369;28;20124;-49
2023/06/17 10:00:24;;;;;;;4.80;3.33;;;;;;;30.05;84.80;101566.88;5033700;28;20030;-50
2023/06/17 10:02:53;;;;;;;5.50;3.95;;;;;;;29.90;82.86;101613.75;5033701;28;20420;-48
2023/06/17 10:05:20;;;;;;;4.43;4.03;;;;;;;29.06;92.72;101607.69;5015799;28;20023;-49
2023/06/17 10:07:46;;;;;;;5.03;3.75;;;;;;;29.39;84.02;101581.84;5032307;28;20036;-47
2023/06/17 10:10:12;;;;;;;5.68;3.13;;;;;;;29.39;81.65;101603.53;5033610;28;20030;-49
2023/06/17 10:12:38;;;;;;;3.70;3.38;;;;;;;29.35;79.42;101592.13;5033226;28;20365;-48
2023/06/17 10:15:05;;;;;;;3.47;3.17;;;;;;;29.40;78.54;101549.13;5015609;28;20034;-50
2023/06/17 10:17:31;;;;;;;3.63;3.33;;;;;;;29.65;78.58;101614.50;5033018;28;20540;-52
2023/06/17 10:19:59;;;;;;;4.65;3.35;;;;;;;29.06;85.66;101577.00;5032014;28;20469;-48
2023/06/17 10:22:25;;;;;;;5.20;3.45;;;;;;;29.47;78.16;101611.75;5014860;28;20061;-50
2023/06/17 10:24:51;;;;;;;7.85;3.47;;;;;;;29.59;75.00;101591.56;5015340;28;20033;-49
2023/06/17 10:27:20;;;;;;;6.22;3.38;;;;;;;29.78;77.31;101602.25;5033111;28;20040;-50
2023/06/17 10:29:48;;;;;;;7.07;3.47;;;;;;;29.93;95.85;101546.44;5032766;28;20045;-48
2023/06/17 10:32:24;;;;;;;6.28;3.92;;;;;;;30.27;70.90;101575.53;5014936;28;20027;-48
2023/06/17 10:35:05;;;;;;;5.57;3.92;;;;;;;29.54;75.76;101620.97;5033012;28;20021;-49
2023/06/17 10:37:30;;;;;;;;;;;;;;;30.47;82.02;101612.38;5033175;28;20112;-51
2023/06/17 10:40:19;;;;;;;5.70;3.28;;;;;;;30.11;74.84;101601.56;5032821;28;19952;-51
2023/06/17 10:42:59;;;;;;;4.80;3.13;;;;;;;30.16;72.35;101589.34;5032669;28;20030;-49
2023/06/17 10:45:25;;;;;;;7.32;3.70;;;;;;;30.49;72.40;101592.19;5031882;28;20102;-47
2023/06/17 10:47:50;;;;;;;3.97;3.50;;;;;;;30.99;72.08;101588.72;5013414;28;20033;-52
2023/06/17 10:50:20;;;;;;;5.30;3.58;;;;;;;31.05;75.41;101530.97;5031973;28;20033;-50
2023/06/17 10:52:46;;;;;;;4.10;3.53;;;;;;;30.80;63.59;101520.97;5031495;28;20041;-52
2023/06/17 10:55:12;;;;;;;7.00;4.05;;;;;;;30.79;78.01;101551.91;5011748;28;20382;-51
2023/06/17 10:57:38;;;;;;;4.18;3.38;;;;;;;30.82;71.04;101578.78;5030598;28;20473;-50
2023/06/17 11:00:08;;;;;;;4.00;3.30;;;;;;;31.53;78.07;101576.50;5030298;28;20092;-49
2023/06/17 11:02:37;;;;;;;4.57;3.50;;;;;;;31.24;63.99;101574.19;5030262;28;20148;-49
2023/06/17 11:05:06;;;;;;;4.50;4.07;;;;;;;30.99;71.89;101526.19;5012256;28;20382;-48
2023/06/17 11:07:32;;;;;;;6.65;3.47;;;;;;;31.08;63.86;101493.44;5029971;28;20116;-50
2023/06/17 11:09:58;;;;;;;6.63;3.60;;;;;;;31.59;62.84;101564.94;5012311;28;20108;-51